sensor_id;sensor_type;location;lat;lon;timestamp;temperature;humidity
21508;DHT22;10915;54.352;9.074;2023-09-08T00:02:25;16.90;99.90
21508;DHT22;10915;54.352;9.074;2023-09-08T00:04:51;17.00;99.90
21508;DHT22;10915;54.352;9.074;2023-09-08T00:07:17;17.00;99.90
21508;DHT22;10915;54.352;9.074;2023-09-08T00:09:43;16.90;99.90
21508;DHT22;10915;54.352;9.074;2023-09-08T00:12:08;17.00;99.90
21508;DHT22;10915;54.352;9.074;2023-09-08T00:14:34;17.00;99.90
21508;DHT22;10915;54.352;9.074;2023-09-08T00:16:59;17.00;99.90
21508;DHT22;10915;54.352;9.074;2023-09-08T00:19:25;17.00;99.90
21508;DHT22;10915;54.352;9.074;2023-09-08T00:21:51;17.00;99.90
21508;DHT22;10915;54.352;9.074;2023-09-08T00:24:16;17.00;99.90
21508;DHT22;10915;54.352;9.074;2023-09-08T00:26:43;17.00;99.90
21508;DHT22;10915;54.352;9.074;2023-09-08T00:29:08;17.10;99.90
21508;DHT22;10915;54.352;9.074;2023-09-08T00:31:34;17.10;99.90
21508;DHT22;10915;54.352;9.074;2023-09-08T00:33:59;17.10;99.90
21508;DHT22;10915;54.352;9.074;2023-09-08T00:36:25;17.10;99.90
21508;DHT22;10915;54.352;9.074;2023-09-08T00:38:51;17.10;99.90
21508;DHT22;10915;54.352;9.074;2023-09-08T00:41:16;17.10;99.90
21508;DHT22;10915;54.352;9.074;2023-09-08T00:43:42;17.00;99.90
21508;DHT22;10915;54.352;9.074;2023-09-08T00:46:08;17.10;99.90
21508;DHT22;10915;54.352;9.074;2023-09-08T00:48:34;17.10;99.90
21508;DHT22;10915;54.352;9.074;2023-09-08T00:51:01;17.00;99.90
21508;DHT22;10915;54.352;9.074;2023-09-08T00:53:37;17.10;99.90
21508;DHT22;10915;54.352;9.074;2023-09-08T00:56:02;17.10;99.90
21508;DHT22;10915;54.352;9.074;2023-09-08T00:58:29;17.10;99.90
21508;DHT22;10915;54.352;9.074;2023-09-08T01:00:55;17.00;99.90
21508;DHT22;10915;54.352;9.074;2023-09-08T01:03:23;17.00;99.90
21508;DHT22;10915;54.352;9.074;2023-09-08T01:05:49;17.00;99.90
21508;DHT22;10915;54.352;9.074;2023-09-08T01:08:15;17.00;99.90
21508;DHT22;10915;54.352;9.074;2023-09-08T01:10:41;17.00;99.90
21508;DHT22;10915;54.352;9.074;2023-09-08T01:13:07;16.90;99.90
21508;DHT22;10915;54.352;9.074;2023-09-08T01:15:33;17.00;99.90
21508;DHT22;10915;54.352;9.074;2023-09-08T01:17:58;17.00;99.90
21508;DHT22;10915;54.352;9.074;2023-09-08T01:20:27;16.90;99.90
21508;DHT22;10915;54.352;9.074;2023-09-08T01:25:59;16.90;99.90
21508;DHT22;10915;54.352;9.074;2023-09-08T01:28:26;16.90;99.90
21508;DHT22;10915;54.352;9.074;2023-09-08T01:30:54;16.90;99.90
21508;DHT22;10915;54.352;9.074;2023-09-08T01:33:22;16.90;99.90
21508;DHT22;10915;54.352;9.074;2023-09-08T01:35:48;16.90;99.90
21508;DHT22;10915;54.352;9.074;2023-09-08T01:38:14;16.80;99.90
21508;DHT22;10915;54.352;9.074;2023-09-08T01:40:39;16.80;99.90
21508;DHT22;10915;54.352;9.074;2023-09-08T01:43:05;16.90;99.90
21508;DHT22;10915;54.352;9.074;2023-09-08T01:45:31;16.80;99.90
21508;DHT22;10915;54.352;9.074;2023-09-08T01:47:56;16.80;99.90
21508;DHT22;10915;54.352;9.074;2023-09-08T01:50:22;16.80;99.90
21508;DHT22;10915;54.352;9.074;2023-09-08T01:52:49;16.80;99.90
21508;DHT22;10915;54.352;9.074;2023-09-08T01:55:15;16.70;99.90
21508;DHT22;10915;54.352;9.074;2023-09-08T01:57:42;16.70;99.90
21508;DHT22;10915;54.352;9.074;2023-09-08T02:00:09;16.70;99.90
21508;DHT22;10915;54.352;9.074;2023-09-08T02:02:35;16.70;99.90
21508;DHT22;10915;54.352;9.074;2023-09-08T02:05:00;16.70;99.90
21508;DHT22;10915;54.352;9.074;2023-09-08T02:07:26;16.70;99.90
21508;DHT22;10915;54.352;9.074;2023-09-08T02:09:51;16.70;99.90
21508;DHT22;10915;54.352;9.074;2023-09-08T02:12:17;16.70;99.90
21508;DHT22;10915;54.352;9.074;2023-09-08T02:14:43;16.60;99.90
21508;DHT22;10915;54.352;9.074;2023-09-08T02:17:08;16.60;99.90
21508;DHT22;10915;54.352;9.074;2023-09-08T02:19:34;16.60;99.90
21508;DHT22;10915;54.352;9.074;2023-09-08T02:21:59;16.60;99.90
21508;DHT22;10915;54.352;9.074;2023-09-08T02:24:25;16.60;99.90
21508;DHT22;10915;54.352;9.074;2023-09-08T02:26:51;16.60;99.90
21508;DHT22;10915;54.352;9.074;2023-09-08T02:29:17;16.60;99.90
21508;DHT22;10915;54.352;9.074;2023-09-08T02:31:42;16.60;99.90
21508;DHT22;10915;54.352;9.074;2023-09-08T02:34:09;16.50;99.90
21508;DHT22;10915;54.352;9.074;2023-09-08T02:36:36;16.50;99.90
21508;DHT22;10915;54.352;9.074;2023-09-08T02:39:02;16.50;99.90
21508;DHT22;10915;54.352;9.074;2023-09-08T02:41:28;16.50;99.90
21508;DHT22;10915;54.352;9.074;2023-09-08T02:43:53;16.40;99.90
21508;DHT22;10915;54.352;9.074;2023-09-08T02:46:19;16.40;99.90
21508;DHT22;10915;54.352;9.074;2023-09-08T02:48:44;16.40;99.90
21508;DHT22;10915;54.352;9.074;2023-09-08T02:51:10;16.40;99.90
21508;DHT22;10915;54.352;9.074;2023-09-08T02:53:36;16.30;99.90
21508;DHT22;10915;54.352;9.074;2023-09-08T02:56:01;16.40;99.90
21508;DHT22;10915;54.352;9.074;2023-09-08T02:58:28;16.40;99.90
21508;DHT22;10915;54.352;9.074;2023-09-08T03:00:55;16.40;99.90
21508;DHT22;10915;54.352;9.074;2023-09-08T03:03:22;16.40;99.90
21508;DHT22;10915;54.352;9.074;2023-09-08T03:05:47;16.40;99.90
21508;DHT22;10915;54.352;9.074;2023-09-08T03:08:13;16.30;99.90
21508;DHT22;10915;54.352;9.074;2023-09-08T03:10:39;16.30;99.90
21508;DHT22;10915;54.352;9.074;2023-09-08T03:13:05;16.30;99.90
21508;DHT22;10915;54.352;9.074;2023-09-08T03:15:31;16.30;99.90
21508;DHT22;10915;54.352;9.074;2023-09-08T03:17:58;16.30;99.90
21508;DHT22;10915;54.352;9.074;2023-09-08T03:20:27;16.30;99.90
21508;DHT22;10915;54.352;9.074;2023-09-08T03:22:54;16.30;99.90
21508;DHT22;10915;54.352;9.074;2023-09-08T03:25:20;16.20;99.90
21508;DHT22;10915;54.352;9.074;2023-09-08T03:27:46;16.20;99.90
21508;DHT22;10915;54.352;9.074;2023-09-08T03:30:12;16.10;99.90
21508;DHT22;10915;54.352;9.074;2023-09-08T03:32:38;16.20;99.90
21508;DHT22;10915;54.352;9.074;2023-09-08T03:35:04;16.20;99.90
21508;DHT22;10915;54.352;9.074;2023-09-08T03:37:34;16.20;99.90
21508;DHT22;10915;54.352;9.074;2023-09-08T03:39:59;16.20;99.90
21508;DHT22;10915;54.352;9.074;2023-09-08T03:42:25;16.20;99.90
21508;DHT22;10915;54.352;9.074;2023-09-08T03:44:51;16.10;99.90
21508;DHT22;10915;54.352;9.074;2023-09-08T03:47:16;16.10;99.90
21508;DHT22;10915;54.352;9.074;2023-09-08T03:49:42;16.10;99.90
21508;DHT22;10915;54.352;9.074;2023-09-08T03:52:07;16.00;99.90
21508;DHT22;10915;54.352;9.074;2023-09-08T03:54:33;16.00;99.90
21508;DHT22;10915;54.352;9.074;2023-09-08T03:56:59;16.00;99.90
21508;DHT22;10915;54.352;9.074;2023-09-08T03:59:24;15.90;99.90
21508;DHT22;10915;54.352;9.074;2023-09-08T04:01:50;15.90;99.90
21508;DHT22;10915;54.352;9.074;2023-09-08T04:04:15;15.90;99.90
21508;DHT22;10915;54.352;9.074;2023-09-08T04:06:41;15.90;99.90
21508;DHT22;10915;54.352;9.074;2023-09-08T04:09:07;15.80;99.90
21508;DHT22;10915;54.352;9.074;2023-09-08T04:11:33;15.80;99.90
21508;DHT22;10915;54.352;9.074;2023-09-08T04:13:58;15.80;99.90
21508;DHT22;10915;54.352;9.074;2023-09-08T04:16:25;15.80;99.90
21508;DHT22;10915;54.352;9.074;2023-09-08T04:18:51;15.70;99.90
21508;DHT22;10915;54.352;9.074;2023-09-08T04:21:16;15.70;99.90
21508;DHT22;10915;54.352;9.074;2023-09-08T04:23:42;15.70;99.90
21508;DHT22;10915;54.352;9.074;2023-09-08T04:26:08;15.60;99.90
21508;DHT22;10915;54.352;9.074;2023-09-08T04:28:33;15.60;99.90
21508;DHT22;10915;54.352;9.074;2023-09-08T04:30:59;15.60;99.90
21508;DHT22;10915;54.352;9.074;2023-09-08T04:33:24;15.60;99.90
21508;DHT22;10915;54.352;9.074;2023-09-08T04:35:50;15.60;99.90
21508;DHT22;10915;54.352;9.074;2023-09-08T04:38:16;15.60;99.90
21508;DHT22;10915;54.352;9.074;2023-09-08T04:40:44;15.60;99.90
21508;DHT22;10915;54.352;9.074;2023-09-08T04:43:10;15.50;99.90
21508;DHT22;10915;54.352;9.074;2023-09-08T04:45:36;15.60;99.90
21508;DHT22;10915;54.352;9.074;2023-09-08T04:48:02;15.50;99.90
21508;DHT22;10915;54.352;9.074;2023-09-08T04:50:28;15.50;99.90
21508;DHT22;10915;54.352;9.074;2023-09-08T04:52:53;15.50;99.90
21508;DHT22;10915;54.352;9.074;2023-09-08T04:55:19;15.50;99.90
21508;DHT22;10915;54.352;9.074;2023-09-08T04:57:45;15.50;99.90
21508;DHT22;10915;54.352;9.074;2023-09-08T05:00:11;15.50;99.90
21508;DHT22;10915;54.352;9.074;2023-09-08T05:02:37;15.50;99.90
21508;DHT22;10915;54.352;9.074;2023-09-08T05:05:03;15.50;99.90
21508;DHT22;10915;54.352;9.074;2023-09-08T05:07:29;15.40;99.90
21508;DHT22;10915;54.352;9.074;2023-09-08T05:09:54;15.40;99.90
21508;DHT22;10915;54.352;9.074;2023-09-08T05:12:20;15.40;99.90
21508;DHT22;10915;54.352;9.074;2023-09-08T05:14:45;15.50;99.90
21508;DHT22;10915;54.352;9.074;2023-09-08T05:17:11;15.40;99.90
21508;DHT22;10915;54.352;9.074;2023-09-08T05:19:37;15.40;99.90
21508;DHT22;10915;54.352;9.074;2023-09-08T05:22:06;15.50;99.90
21508;DHT22;10915;54.352;9.074;2023-09-08T05:24:34;15.50;99.90
21508;DHT22;10915;54.352;9.074;2023-09-08T05:27:00;15.60;99.90
21508;DHT22;10915;54.352;9.074;2023-09-08T05:29:25;15.60;99.90
21508;DHT22;10915;54.352;9.074;2023-09-08T05:31:51;15.60;99.90
21508;DHT22;10915;54.352;9.074;2023-09-08T05:34:17;15.70;99.90
21508;DHT22;10915;54.352;9.074;2023-09-08T05:36:42;15.70;99.90
21508;DHT22;10915;54.352;9.074;2023-09-08T05:39:08;15.80;99.90
21508;DHT22;10915;54.352;9.074;2023-09-08T05:41:34;15.80;99.90
21508;DHT22;10915;54.352;9.074;2023-09-08T05:44:00;15.90;99.90
21508;DHT22;10915;54.352;9.074;2023-09-08T05:46:26;15.90;99.90
21508;DHT22;10915;54.352;9.074;2023-09-08T05:48:51;16.00;99.90
21508;DHT22;10915;54.352;9.074;2023-09-08T05:51:17;16.00;99.90
21508;DHT22;10915;54.352;9.074;2023-09-08T05:53:43;16.10;99.90
21508;DHT22;10915;54.352;9.074;2023-09-08T05:56:09;16.10;99.90
21508;DHT22;10915;54.352;9.074;2023-09-08T05:58:35;16.10;99.90
21508;DHT22;10915;54.352;9.074;2023-09-08T06:01:04;16.20;99.90
21508;DHT22;10915;54.352;9.074;2023-09-08T06:03:35;16.20;99.90
21508;DHT22;10915;54.352;9.074;2023-09-08T06:06:12;16.30;99.90
21508;DHT22;10915;54.352;9.074;2023-09-08T06:08:44;16.30;99.90
21508;DHT22;10915;54.352;9.074;2023-09-08T06:11:09;16.40;99.90
21508;DHT22;10915;54.352;9.074;2023-09-08T06:13:35;16.50;99.90
21508;DHT22;10915;54.352;9.074;2023-09-08T06:16:00;16.50;99.90
21508;DHT22;10915;54.352;9.074;2023-09-08T06:18:28;16.60;99.90
21508;DHT22;10915;54.352;9.074;2023-09-08T06:20:54;16.70;99.90
21508;DHT22;10915;54.352;9.074;2023-09-08T06:23:20;16.70;99.90
21508;DHT22;10915;54.352;9.074;2023-09-08T06:25:46;16.80;99.90
21508;DHT22;10915;54.352;9.074;2023-09-08T06:28:12;16.90;99.90
21508;DHT22;10915;54.352;9.074;2023-09-08T06:30:37;16.90;99.90
21508;DHT22;10915;54.352;9.074;2023-09-08T06:33:07;16.90;99.90
21508;DHT22;10915;54.352;9.074;2023-09-08T06:35:33;17.00;99.90
21508;DHT22;10915;54.352;9.074;2023-09-08T06:37:59;17.00;99.90
21508;DHT22;10915;54.352;9.074;2023-09-08T06:40:25;17.00;99.90
21508;DHT22;10915;54.352;9.074;2023-09-08T06:42:51;17.10;99.90
21508;DHT22;10915;54.352;9.074;2023-09-08T06:45:17;17.10;99.90
21508;DHT22;10915;54.352;9.074;2023-09-08T06:47:43;17.20;99.90
21508;DHT22;10915;54.352;9.074;2023-09-08T06:50:09;17.30;99.90
21508;DHT22;10915;54.352;9.074;2023-09-08T06:52:35;17.30;99.90
21508;DHT22;10915;54.352;9.074;2023-09-08T06:55:01;17.40;99.90
21508;DHT22;10915;54.352;9.074;2023-09-08T06:57:27;17.40;99.90
21508;DHT22;10915;54.352;9.074;2023-09-08T06:59:54;17.50;99.90
21508;DHT22;10915;54.352;9.074;2023-09-08T07:02:22;17.50;99.90
21508;DHT22;10915;54.352;9.074;2023-09-08T07:04:47;17.60;99.90
21508;DHT22;10915;54.352;9.074;2023-09-08T07:07:13;17.70;99.90
21508;DHT22;10915;54.352;9.074;2023-09-08T07:09:39;17.80;99.90
21508;DHT22;10915;54.352;9.074;2023-09-08T07:12:05;17.90;99.90
21508;DHT22;10915;54.352;9.074;2023-09-08T07:14:31;18.00;99.90
21508;DHT22;10915;54.352;9.074;2023-09-08T07:16:57;18.10;99.90
21508;DHT22;10915;54.352;9.074;2023-09-08T07:19:23;18.20;99.90
21508;DHT22;10915;54.352;9.074;2023-09-08T07:21:49;18.20;99.90
21508;DHT22;10915;54.352;9.074;2023-09-08T07:24:14;18.30;99.90
21508;DHT22;10915;54.352;9.074;2023-09-08T07:27:19;18.40;99.90
21508;DHT22;10915;54.352;9.074;2023-09-08T07:29:57;18.50;99.90
21508;DHT22;10915;54.352;9.074;2023-09-08T07:32:25;18.60;99.90
21508;DHT22;10915;54.352;9.074;2023-09-08T07:35:14;18.70;99.90
21508;DHT22;10915;54.352;9.074;2023-09-08T07:37:48;18.70;99.90
21508;DHT22;10915;54.352;9.074;2023-09-08T07:40:16;18.90;99.90
21508;DHT22;10915;54.352;9.074;2023-09-08T07:43:26;19.00;99.90
21508;DHT22;10915;54.352;9.074;2023-09-08T07:45:54;19.10;99.90
21508;DHT22;10915;54.352;9.074;2023-09-08T07:49:00;19.80;99.90
21508;DHT22;10915;54.352;9.074;2023-09-08T07:51:31;21.10;99.90
21508;DHT22;10915;54.352;9.074;2023-09-08T07:54:09;22.60;99.90
21508;DHT22;10915;54.352;9.074;2023-09-08T07:56:54;23.30;99.90
21508;DHT22;10915;54.352;9.074;2023-09-08T08:02:55;23.50;99.90
21508;DHT22;10915;54.352;9.074;2023-09-08T08:09:04;22.50;99.90
21508;DHT22;10915;54.352;9.074;2023-09-08T08:14:55;22.10;99.90
21508;DHT22;10915;54.352;9.074;2023-09-08T08:17:35;22.00;99.90
21508;DHT22;10915;54.352;9.074;2023-09-08T08:20:11;21.90;99.90
21508;DHT22;10915;54.352;9.074;2023-09-08T08:23:18;21.70;99.90
21508;DHT22;10915;54.352;9.074;2023-09-08T08:25:46;21.70;99.90
21508;DHT22;10915;54.352;9.074;2023-09-08T08:28:50;21.70;99.90
21508;DHT22;10915;54.352;9.074;2023-09-08T08:31:39;21.60;99.90
21508;DHT22;10915;54.352;9.074;2023-09-08T08:38:04;21.50;99.90
21508;DHT22;10915;54.352;9.074;2023-09-08T08:43:26;21.60;99.90
21508;DHT22;10915;54.352;9.074;2023-09-08T08:46:33;21.70;99.90
21508;DHT22;10915;54.352;9.074;2023-09-08T08:49:21;21.70;99.90
21508;DHT22;10915;54.352;9.074;2023-09-08T08:52:00;21.80;99.90
21508;DHT22;10915;54.352;9.074;2023-09-08T08:54:42;21.90;99.90
21508;DHT22;10915;54.352;9.074;2023-09-08T08:57:29;22.00;99.90
21508;DHT22;10915;54.352;9.074;2023-09-08T09:00:12;22.00;99.90
21508;DHT22;10915;54.352;9.074;2023-09-08T09:02:48;22.10;99.90
21508;DHT22;10915;54.352;9.074;2023-09-08T09:05:20;22.30;99.90
21508;DHT22;10915;54.352;9.074;2023-09-08T09:11:18;22.50;99.90
21508;DHT22;10915;54.352;9.074;2023-09-08T09:17:21;22.50;99.90
21508;DHT22;10915;54.352;9.074;2023-09-08T09:20:19;22.50;99.90
21508;DHT22;10915;54.352;9.074;2023-09-08T09:23:21;22.50;99.90
21508;DHT22;10915;54.352;9.074;2023-09-08T09:29:54;22.80;99.90
21508;DHT22;10915;54.352;9.074;2023-09-08T09:33:06;22.80;99.90
21508;DHT22;10915;54.352;9.074;2023-09-08T09:35:53;22.90;99.90
21508;DHT22;10915;54.352;9.074;2023-09-08T09:38:44;22.90;99.90
21508;DHT22;10915;54.352;9.074;2023-09-08T09:41:48;23.00;99.90
21508;DHT22;10915;54.352;9.074;2023-09-08T09:44:22;23.10;99.90
21508;DHT22;10915;54.352;9.074;2023-09-08T09:54:03;25.60;99.90
21508;DHT22;10915;54.352;9.074;2023-09-08T10:10:48;25.90;99.90
21508;DHT22;10915;54.352;9.074;2023-09-08T10:13:50;25.50;99.90
21508;DHT22;10915;54.352;9.074;2023-09-08T10:19:20;25.70;99.90
21508;DHT22;10915;54.352;9.074;2023-09-08T10:22:06;25.70;99.90
21508;DHT22;10915;54.352;9.074;2023-09-08T10:24:35;25.80;99.90
21508;DHT22;10915;54.352;9.074;2023-09-08T10:27:10;25.90;99.90
21508;DHT22;10915;54.352;9.074;2023-09-08T10:29:37;26.00;99.90
21508;DHT22;10915;54.352;9.074;2023-09-08T10:32:04;26.10;99.90
21508;DHT22;10915;54.352;9.074;2023-09-08T10:34:31;26.10;99.90
21508;DHT22;10915;54.352;9.074;2023-09-08T10:36:58;26.20;99.90
21508;DHT22;10915;54.352;9.074;2023-09-08T10:39:33;26.30;99.90
21508;DHT22;10915;54.352;9.074;2023-09-08T10:42:20;26.40;99.90
21508;DHT22;10915;54.352;9.074;2023-09-08T10:47:23;26.70;99.90
21508;DHT22;10915;54.352;9.074;2023-09-08T10:49:50;27.00;99.90
21508;DHT22;10915;54.352;9.074;2023-09-08T10:52:21;27.40;99.90
21508;DHT22;10915;54.352;9.074;2023-09-08T10:54:49;27.90;99.90
21508;DHT22;10915;54.352;9.074;2023-09-08T10:57:22;28.50;99.90
21508;DHT22;10915;54.352;9.074;2023-09-08T10:59:52;29.00;99.90
21508;DHT22;10915;54.352;9.074;2023-09-08T11:04:55;29.50;99.90
21508;DHT22;10915;54.352;9.074;2023-09-08T11:10:59;30.10;99.90
21508;DHT22;10915;54.352;9.074;2023-09-08T11:19:54;29.50;99.90
21508;DHT22;10915;54.352;9.074;2023-09-08T11:22:23;29.50;99.90
21508;DHT22;10915;54.352;9.074;2023-09-08T11:24:51;29.30;99.90
21508;DHT22;10915;54.352;9.074;2023-09-08T11:27:17;29.20;99.90
21508;DHT22;10915;54.352;9.074;2023-09-08T11:29:46;29.00;99.90
21508;DHT22;10915;54.352;9.074;2023-09-08T11:32:12;28.90;99.90
21508;DHT22;10915;54.352;9.074;2023-09-08T11:34:38;28.90;99.90
21508;DHT22;10915;54.352;9.074;2023-09-08T11:37:14;28.90;99.90
21508;DHT22;10915;54.352;9.074;2023-09-08T11:39:42;28.90;99.90
21508;DHT22;10915;54.352;9.074;2023-09-08T11:42:10;29.00;99.90
21508;DHT22;10915;54.352;9.074;2023-09-08T11:44:37;29.20;99.90
21508;DHT22;10915;54.352;9.074;2023-09-08T11:47:03;29.30;99.90
21508;DHT22;10915;54.352;9.074;2023-09-08T11:49:42;29.30;99.90
21508;DHT22;10915;54.352;9.074;2023-09-08T11:52:10;29.30;99.90
21508;DHT22;10915;54.352;9.074;2023-09-08T11:54:36;29.20;99.90
21508;DHT22;10915;54.352;9.074;2023-09-08T11:57:04;29.00;99.90
21508;DHT22;10915;54.352;9.074;2023-09-08T11:59:34;29.00;99.90
21508;DHT22;10915;54.352;9.074;2023-09-08T12:02:00;29.10;99.90
21508;DHT22;10915;54.352;9.074;2023-09-08T12:04:27;29.00;99.90
21508;DHT22;10915;54.352;9.074;2023-09-08T12:06:54;29.00;99.90
21508;DHT22;10915;54.352;9.074;2023-09-08T12:09:23;29.00;99.90
21508;DHT22;10915;54.352;9.074;2023-09-08T12:11:49;29.00;99.90
21508;DHT22;10915;54.352;9.074;2023-09-08T12:14:15;29.00;99.90
21508;DHT22;10915;54.352;9.074;2023-09-08T12:16:41;29.00;99.90
21508;DHT22;10915;54.352;9.074;2023-09-08T12:19:08;29.00;99.90
21508;DHT22;10915;54.352;9.074;2023-09-08T12:21:53;29.10;99.90
21508;DHT22;10915;54.352;9.074;2023-09-08T12:24:19;29.20;99.90
21508;DHT22;10915;54.352;9.074;2023-09-08T12:26:45;29.20;99.90
21508;DHT22;10915;54.352;9.074;2023-09-08T12:29:13;29.20;99.90
21508;DHT22;10915;54.352;9.074;2023-09-08T12:31:39;29.20;99.90
21508;DHT22;10915;54.352;9.074;2023-09-08T12:34:05;29.30;99.90
21508;DHT22;10915;54.352;9.074;2023-09-08T12:36:30;29.30;99.90
21508;DHT22;10915;54.352;9.074;2023-09-08T12:38:56;29.30;99.90
21508;DHT22;10915;54.352;9.074;2023-09-08T12:41:21;29.30;99.90
21508;DHT22;10915;54.352;9.074;2023-09-08T12:43:47;29.40;99.90
21508;DHT22;10915;54.352;9.074;2023-09-08T12:46:12;29.40;99.90
21508;DHT22;10915;54.352;9.074;2023-09-08T12:48:38;29.40;99.90
21508;DHT22;10915;54.352;9.074;2023-09-08T12:51:04;29.50;99.90
21508;DHT22;10915;54.352;9.074;2023-09-08T12:53:33;29.50;99.90
21508;DHT22;10915;54.352;9.074;2023-09-08T12:56:00;29.40;99.90
21508;DHT22;10915;54.352;9.074;2023-09-08T12:58:26;29.50;99.90
21508;DHT22;10915;54.352;9.074;2023-09-08T13:00:53;29.50;99.90
21508;DHT22;10915;54.352;9.074;2023-09-08T13:03:18;29.40;99.90
21508;DHT22;10915;54.352;9.074;2023-09-08T13:05:44;29.50;99.90
21508;DHT22;10915;54.352;9.074;2023-09-08T13:08:10;29.40;99.90
21508;DHT22;10915;54.352;9.074;2023-09-08T13:10:36;29.50;99.90
21508;DHT22;10915;54.352;9.074;2023-09-08T13:13:02;29.50;99.90
21508;DHT22;10915;54.352;9.074;2023-09-08T13:15:29;29.50;99.90
21508;DHT22;10915;54.352;9.074;2023-09-08T13:17:55;29.50;99.90
21508;DHT22;10915;54.352;9.074;2023-09-08T13:20:21;29.60;99.90
21508;DHT22;10915;54.352;9.074;2023-09-08T13:22:46;29.60;99.90
21508;DHT22;10915;54.352;9.074;2023-09-08T13:25:12;29.60;99.90
21508;DHT22;10915;54.352;9.074;2023-09-08T13:27:40;29.60;99.90
21508;DHT22;10915;54.352;9.074;2023-09-08T13:30:13;29.60;99.90
21508;DHT22;10915;54.352;9.074;2023-09-08T13:32:39;29.70;99.90
21508;DHT22;10915;54.352;9.074;2023-09-08T13:35:06;29.60;99.90
21508;DHT22;10915;54.352;9.074;2023-09-08T13:37:32;29.70;99.90
21508;DHT22;10915;54.352;9.074;2023-09-08T13:40:02;29.50;99.90
21508;DHT22;10915;54.352;9.074;2023-09-08T13:42:29;29.50;99.90
21508;DHT22;10915;54.352;9.074;2023-09-08T13:44:54;29.50;99.90
21508;DHT22;10915;54.352;9.074;2023-09-08T13:47:20;29.60;99.90
21508;DHT22;10915;54.352;9.074;2023-09-08T13:49:46;29.40;99.90
21508;DHT22;10915;54.352;9.074;2023-09-08T13:52:11;29.60;99.90
21508;DHT22;10915;54.352;9.074;2023-09-08T13:54:37;29.50;99.90
21508;DHT22;10915;54.352;9.074;2023-09-08T13:57:04;29.40;99.90
21508;DHT22;10915;54.352;9.074;2023-09-08T13:59:30;29.40;99.90
21508;DHT22;10915;54.352;9.074;2023-09-08T14:01:56;29.40;99.90
21508;DHT22;10915;54.352;9.074;2023-09-08T14:04:27;29.40;99.90
21508;DHT22;10915;54.352;9.074;2023-09-08T14:06:52;29.50;99.90
21508;DHT22;10915;54.352;9.074;2023-09-08T14:09:18;29.50;99.90
21508;DHT22;10915;54.352;9.074;2023-09-08T14:11:44;29.50;99.90
21508;DHT22;10915;54.352;9.074;2023-09-08T14:14:10;29.40;99.90
21508;DHT22;10915;54.352;9.074;2023-09-08T14:16:35;29.40;99.90
21508;DHT22;10915;54.352;9.074;2023-09-08T14:19:01;29.50;99.90
21508;DHT22;10915;54.352;9.074;2023-09-08T14:21:26;29.50;99.90
21508;DHT22;10915;54.352;9.074;2023-09-08T14:23:52;29.50;99.90
21508;DHT22;10915;54.352;9.074;2023-09-08T14:26:18;29.60;99.90
21508;DHT22;10915;54.352;9.074;2023-09-08T14:28:45;29.60;99.90
21508;DHT22;10915;54.352;9.074;2023-09-08T14:31:10;29.60;99.90
21508;DHT22;10915;54.352;9.074;2023-09-08T14:33:37;29.60;99.90
21508;DHT22;10915;54.352;9.074;2023-09-08T14:36:02;29.70;99.90
21508;DHT22;10915;54.352;9.074;2023-09-08T14:38:28;29.60;99.90
21508;DHT22;10915;54.352;9.074;2023-09-08T14:41:01;29.60;99.90
21508;DHT22;10915;54.352;9.074;2023-09-08T14:43:28;29.70;99.90
21508;DHT22;10915;54.352;9.074;2023-09-08T14:45:54;29.70;99.90
21508;DHT22;10915;54.352;9.074;2023-09-08T14:48:23;29.70;99.90
21508;DHT22;10915;54.352;9.074;2023-09-08T14:50:49;29.70;99.90
21508;DHT22;10915;54.352;9.074;2023-09-08T14:53:15;29.60;99.90
21508;DHT22;10915;54.352;9.074;2023-09-08T14:55:41;29.60;99.90
21508;DHT22;10915;54.352;9.074;2023-09-08T14:58:09;29.50;99.90
21508;DHT22;10915;54.352;9.074;2023-09-08T15:00:36;29.60;99.90
21508;DHT22;10915;54.352;9.074;2023-09-08T15:03:02;29.70;99.90
21508;DHT22;10915;54.352;9.074;2023-09-08T15:05:30;29.80;99.90
21508;DHT22;10915;54.352;9.074;2023-09-08T15:07:56;29.70;99.90
21508;DHT22;10915;54.352;9.074;2023-09-08T15:10:22;29.80;99.90
21508;DHT22;10915;54.352;9.074;2023-09-08T15:12:48;29.80;99.90
21508;DHT22;10915;54.352;9.074;2023-09-08T15:15:13;29.70;99.90
21508;DHT22;10915;54.352;9.074;2023-09-08T15:17:42;29.60;99.90
21508;DHT22;10915;54.352;9.074;2023-09-08T15:20:08;29.50;99.90
21508;DHT22;10915;54.352;9.074;2023-09-08T15:22:34;29.40;99.90
21508;DHT22;10915;54.352;9.074;2023-09-08T15:25:00;29.30;99.90
21508;DHT22;10915;54.352;9.074;2023-09-08T15:27:26;29.20;99.90
21508;DHT22;10915;54.352;9.074;2023-09-08T15:29:53;29.10;99.90
21508;DHT22;10915;54.352;9.074;2023-09-08T15:32:20;29.00;99.90
21508;DHT22;10915;54.352;9.074;2023-09-08T15:34:48;29.00;99.90
21508;DHT22;10915;54.352;9.074;2023-09-08T15:37:15;28.90;99.90
21508;DHT22;10915;54.352;9.074;2023-09-08T15:39:40;28.80;99.90
21508;DHT22;10915;54.352;9.074;2023-09-08T15:42:06;28.80;99.90
21508;DHT22;10915;54.352;9.074;2023-09-08T15:44:32;28.80;99.90
21508;DHT22;10915;54.352;9.074;2023-09-08T15:46:57;28.70;99.90
21508;DHT22;10915;54.352;9.074;2023-09-08T15:49:23;28.60;99.90
21508;DHT22;10915;54.352;9.074;2023-09-08T15:51:48;28.60;99.90
21508;DHT22;10915;54.352;9.074;2023-09-08T15:54:14;28.50;99.90
21508;DHT22;10915;54.352;9.074;2023-09-08T15:56:39;28.50;99.90
21508;DHT22;10915;54.352;9.074;2023-09-08T15:59:05;28.60;99.90
21508;DHT22;10915;54.352;9.074;2023-09-08T16:01:30;28.60;99.90
21508;DHT22;10915;54.352;9.074;2023-09-08T16:03:56;28.40;99.90
21508;DHT22;10915;54.352;9.074;2023-09-08T16:06:21;28.40;99.90
21508;DHT22;10915;54.352;9.074;2023-09-08T16:08:47;28.30;99.90
21508;DHT22;10915;54.352;9.074;2023-09-08T16:11:13;28.30;99.90
21508;DHT22;10915;54.352;9.074;2023-09-08T16:13:39;28.30;99.90
21508;DHT22;10915;54.352;9.074;2023-09-08T16:16:04;28.20;99.90
21508;DHT22;10915;54.352;9.074;2023-09-08T16:18:33;28.10;99.90
21508;DHT22;10915;54.352;9.074;2023-09-08T16:20:58;28.10;99.90
21508;DHT22;10915;54.352;9.074;2023-09-08T16:23:24;28.00;99.90
21508;DHT22;10915;54.352;9.074;2023-09-08T16:25:50;27.90;99.90
21508;DHT22;10915;54.352;9.074;2023-09-08T16:28:16;27.90;99.90
21508;DHT22;10915;54.352;9.074;2023-09-08T16:30:42;27.90;99.90
21508;DHT22;10915;54.352;9.074;2023-09-08T16:33:08;27.80;99.90
21508;DHT22;10915;54.352;9.074;2023-09-08T16:35:34;27.80;99.90
21508;DHT22;10915;54.352;9.074;2023-09-08T16:38:00;27.70;99.90
21508;DHT22;10915;54.352;9.074;2023-09-08T16:40:25;27.50;99.90
21508;DHT22;10915;54.352;9.074;2023-09-08T16:42:51;27.50;99.90
21508;DHT22;10915;54.352;9.074;2023-09-08T16:45:17;27.30;99.90
21508;DHT22;10915;54.352;9.074;2023-09-08T16:47:42;27.30;99.90
21508;DHT22;10915;54.352;9.074;2023-09-08T16:50:08;27.30;99.90